Boon, Michigan
Current Conditions -  °F | °C
As of 9:54 PM on Monday 20 Oct 2014 (Local Time) from KCAD Reporting Station
Drizzle Drizzle  
Wind Chill: 39°   Ceiling: 900
Heat Index: 44°   Visibility: 5mi
Dew Point: 43°   Wind: 9mph
Humidity: 97%   Direction: 300°WNW
Pressure: 29.92"   Gusts: NA
Location:  44.29°N, 85.6°W
Report Text: KCAD 210154Z AUTO 30008KT 5SM DZ OVC009 06/06 A2992 RMK AO2 T00650061
Loading
Personal Weather Stations






























Interactive Weather Map
Tropical Storm Tracking
New forecast layout! Learn more

10-Day Weather Forecast

Advertisements
Track Severe Weather on mobile